Main page
METAR-TAF:

METAR-TAF

Airports :

Adolfo Suárez Madrid–Barajas Airport

Madrid, Spain

latitude: 40-27N, longitude: 003-33W, elevation: 609 m

Current weather observation

The report was made 16 minutes ago, at 04:30 UTC
Wind 3 kt from the Northwest
Temperature 2°C
Humidity 75%
Pressure 1028 hPa
Visibility 10 km or more
no clouds below 1500 m and no cumulonimbus

METAR: LEMD 210430Z 31003KT CAVOK 02/M02 Q1028 NOSIG

Time: 05:46 (04:46 UTC)

Forecast

The report was made 5 hours and 46 minutes ago, at 23:00 UTC
Forecast valid from 21 at 00 UTC to 22 at 06 UTC
Wind 4 kt from variable directions
Visibility 10 km or more
no clouds below 1500 m and no cumulonimbus
Probability 40% :
Temporary
from 21 at 00 UTC to 21 at 10 UTC
Wind 10 kt from the North/Northeast

TAF: LEMD 202300Z 2100/2206 VRB04KT CAVOK TX18/2116Z TN01/2106Z PROB40 TEMPO 2100/2110 03010KT

Weather observations and forecasts of more than 4000 airports (METAR and TAF reports).

The available stations are represented by yellow and red dots on the map.

Hover mouse over dot to see the name of the station.

Then click to see weather observations and forecasts.

To change the map : click on the green buttons with a black cross to zoom in, on the green button with a dash to zoom out, or on the green arrows for adjacent maps.


METAR-TAF: